createdAt,value
2023-04-14T00:00:09.073Z,0.82
2023-04-14T00:00:59.142Z,0.81
2023-04-14T00:01:49.248Z,0.81
2023-04-14T00:02:39.419Z,0.83
2023-04-14T00:03:29.516Z,0.82
2023-04-14T00:04:20.081Z,0.82
2023-04-14T00:05:09.730Z,0.83
2023-04-14T00:05:59.762Z,0.83
2023-04-14T00:06:49.770Z,0.84
2023-04-14T00:07:39.822Z,0.83
2023-04-14T00:08:29.855Z,0.83
2023-04-14T00:09:19.921Z,0.81
2023-04-14T00:10:09.956Z,0.81
2023-04-14T00:11:00.050Z,0.83
2023-04-14T00:11:50.049Z,0.83
2023-04-14T00:12:40.150Z,0.81
2023-04-14T00:13:30.163Z,0.83
2023-04-14T00:14:20.210Z,0.82
2023-04-14T00:15:10.276Z,0.81
2023-04-14T00:16:00.354Z,0.84
2023-04-14T00:16:50.427Z,0.82
2023-04-14T00:17:40.848Z,0.82
2023-04-14T00:18:30.621Z,0.84
2023-04-14T00:19:20.638Z,0.83
2023-04-14T00:20:10.736Z,0.81
2023-04-14T00:21:00.777Z,0.86
2023-04-14T00:21:50.862Z,0.85
2023-04-14T00:22:40.933Z,0.83
2023-04-14T00:23:30.957Z,0.84
2023-04-14T00:24:21.050Z,0.85
2023-04-14T00:25:11.058Z,0.85
2023-04-14T00:26:01.099Z,0.84
2023-04-14T00:26:51.384Z,0.82
2023-04-14T00:27:41.501Z,0.84
2023-04-14T00:28:31.529Z,0.85
2023-04-14T00:29:21.597Z,0.84
2023-04-14T00:30:11.661Z,0.84
2023-04-14T00:31:01.850Z,0.84
2023-04-14T00:31:51.789Z,0.83
2023-04-14T00:32:41.933Z,0.83
2023-04-14T00:33:31.917Z,0.85
2023-04-14T00:34:22.017Z,0.85
2023-04-14T00:35:12.041Z,0.83
2023-04-14T00:36:02.309Z,0.85
2023-04-14T00:36:52.286Z,0.85
2023-04-14T00:37:42.391Z,0.84
2023-04-14T00:38:32.402Z,0.84
2023-04-14T00:39:22.468Z,0.82
2023-04-14T00:40:12.549Z,0.84
2023-04-14T00:41:02.611Z,0.83
2023-04-14T00:41:52.635Z,0.85
2023-04-14T00:42:42.781Z,0.84
2023-04-14T00:43:32.757Z,0.85
2023-04-14T00:44:22.834Z,0.82
2023-04-14T00:45:13.034Z,0.82
2023-04-14T00:46:03.168Z,0.82
2023-04-14T00:46:53.167Z,0.83
2023-04-14T00:47:43.316Z,0.82
2023-04-14T00:48:33.294Z,0.83
2023-04-14T00:49:23.367Z,0.81
2023-04-14T00:50:13.437Z,0.83
2023-04-14T00:51:03.518Z,0.80
2023-04-14T00:51:53.571Z,0.82
2023-04-14T00:52:43.659Z,0.80
2023-04-14T00:53:33.702Z,0.81
2023-04-14T00:54:23.746Z,0.81
2023-04-14T00:55:13.815Z,0.84
2023-04-14T00:56:03.893Z,0.80
2023-04-14T00:56:53.971Z,0.81
2023-04-14T00:57:44.046Z,0.84
2023-04-14T00:58:34.066Z,0.82
2023-04-14T00:59:24.153Z,0.83
2023-04-14T01:00:14.208Z,0.83
2023-04-14T01:01:04.428Z,0.83
2023-04-14T01:01:54.625Z,0.82
2023-04-14T01:02:44.718Z,0.82
2023-04-14T01:03:34.788Z,0.82
2023-04-14T01:04:29.259Z,0.84
2023-04-14T01:05:15.927Z,0.84
2023-04-14T01:06:04.730Z,0.84
2023-04-14T01:06:54.797Z,0.84
2023-04-14T01:07:44.876Z,0.85
2023-04-14T01:08:34.893Z,0.86
2023-04-14T01:09:24.976Z,0.86
2023-04-14T01:10:15.029Z,0.86
2023-04-14T01:11:05.129Z,0.87
2023-04-14T01:11:55.146Z,0.89
2023-04-14T01:12:45.236Z,0.85
2023-04-14T01:13:35.250Z,0.86
2023-04-14T01:14:25.321Z,0.85
2023-04-14T01:15:15.562Z,0.85
2023-04-14T01:16:05.702Z,0.83
2023-04-14T01:16:55.689Z,0.86
2023-04-14T01:17:45.813Z,0.86
2023-04-14T01:18:35.824Z,0.86
2023-04-14T01:19:25.888Z,0.85
2023-04-14T01:20:15.953Z,0.84
2023-04-14T01:21:06.038Z,0.85
2023-04-14T01:21:56.104Z,0.85
2023-04-14T01:22:46.206Z,0.83
2023-04-14T01:23:36.220Z,0.84
2023-04-14T01:24:26.570Z,0.86
2023-04-14T01:25:16.619Z,0.85
2023-04-14T01:26:06.674Z,0.86
2023-04-14T01:26:56.990Z,0.87
2023-04-14T01:27:47.090Z,0.86
2023-04-14T01:28:37.108Z,0.87
2023-04-14T01:29:27.435Z,0.87
2023-04-14T01:30:17.508Z,0.84
2023-04-14T01:31:07.674Z,0.85
2023-04-14T01:31:57.748Z,0.84
2023-04-14T01:32:47.782Z,0.86
2023-04-14T01:33:37.758Z,0.86
2023-04-14T01:34:27.834Z,0.85
2023-04-14T01:35:17.865Z,0.87
2023-04-14T01:36:07.983Z,0.84
2023-04-14T01:36:58.029Z,0.87
2023-04-14T01:37:48.108Z,0.86
2023-04-14T01:38:38.153Z,0.83
2023-04-14T01:39:28.181Z,0.86
2023-04-14T01:40:18.247Z,0.85
2023-04-14T01:41:08.352Z,0.82
2023-04-14T01:41:58.352Z,0.83
2023-04-14T01:42:48.444Z,0.86
2023-04-14T01:43:38.527Z,0.86
2023-04-14T01:44:28.517Z,0.83
2023-04-14T01:45:18.846Z,0.85
2023-04-14T01:46:08.945Z,0.84
2023-04-14T01:46:58.950Z,0.85
2023-04-14T01:47:49.377Z,0.85
2023-04-14T01:48:39.360Z,0.88
2023-04-14T01:49:29.470Z,0.87
2023-04-14T01:50:19.441Z,0.85
2023-04-14T01:51:09.529Z,0.84
2023-04-14T01:51:59.549Z,0.86
2023-04-14T01:52:49.661Z,0.85
2023-04-14T01:53:39.682Z,0.88
2023-04-14T01:54:29.769Z,0.86
2023-04-14T01:55:19.841Z,0.84
2023-04-14T01:56:09.897Z,0.85
2023-04-14T01:57:00.176Z,0.85
2023-04-14T01:57:50.271Z,0.87
2023-04-14T01:58:40.296Z,0.84
2023-04-14T01:59:30.376Z,0.86
2023-04-14T02:00:20.408Z,0.87
2023-04-14T02:01:10.537Z,0.87
2023-04-14T02:02:00.568Z,0.85
2023-04-14T02:02:50.713Z,0.87
2023-04-14T02:03:40.769Z,0.87
2023-04-14T02:04:30.712Z,0.87
2023-04-14T02:05:20.742Z,0.86
2023-04-14T02:06:10.821Z,0.88
2023-04-14T02:07:00.886Z,0.86
2023-04-14T02:07:50.993Z,0.86
2023-04-14T02:08:41.027Z,0.85
2023-04-14T02:09:31.095Z,0.82
2023-04-14T02:10:21.166Z,0.83
2023-04-14T02:11:11.235Z,0.85
2023-04-14T02:12:01.329Z,0.81
2023-04-14T02:12:51.581Z,0.85
2023-04-14T02:13:41.608Z,0.86
2023-04-14T02:14:31.685Z,0.86
2023-04-14T02:15:22.006Z,0.88
2023-04-14T02:16:12.092Z,0.86
2023-04-14T02:17:02.157Z,0.85
2023-04-14T02:17:52.507Z,0.86
2023-04-14T02:18:42.519Z,0.86
2023-04-14T02:19:32.590Z,0.86
2023-04-14T02:20:22.633Z,0.87
2023-04-14T02:21:12.651Z,0.87
2023-04-14T02:22:02.728Z,0.87
2023-04-14T02:22:52.816Z,0.86
2023-04-14T02:23:42.857Z,0.87
2023-04-14T02:24:32.931Z,0.84
2023-04-14T02:25:22.962Z,0.85
2023-04-14T02:26:13.032Z,0.87
2023-04-14T02:27:03.290Z,0.87
2023-04-14T02:27:53.370Z,0.85
2023-04-14T02:28:43.382Z,0.86
2023-04-14T02:29:33.450Z,0.87
2023-04-14T02:30:23.517Z,0.85
2023-04-14T02:31:13.667Z,0.87
2023-04-14T02:32:03.665Z,0.84
2023-04-14T02:32:53.756Z,0.88
2023-04-14T02:33:43.764Z,0.85
2023-04-14T02:34:34.382Z,0.87
2023-04-14T02:35:23.868Z,0.88
2023-04-14T02:36:13.935Z,0.88
2023-04-14T02:37:04.017Z,0.88
2023-04-14T02:37:54.107Z,0.88
2023-04-14T02:38:44.121Z,0.87
2023-04-14T02:39:34.199Z,0.85
2023-04-14T02:40:24.230Z,0.89
2023-04-14T02:41:14.265Z,0.86
2023-04-14T02:42:04.306Z,0.86
2023-04-14T02:42:54.352Z,0.86
2023-04-14T02:43:44.404Z,0.86
2023-04-14T02:44:34.492Z,0.86
2023-04-14T02:45:24.484Z,0.87
2023-04-14T02:46:14.638Z,0.87
2023-04-14T02:47:04.686Z,0.86
2023-04-14T02:47:54.800Z,0.90
2023-04-14T02:48:44.784Z,0.87
2023-04-14T02:49:34.856Z,0.84
2023-04-14T02:50:24.924Z,0.85
2023-04-14T02:51:15.006Z,0.85
2023-04-14T02:52:05.047Z,0.85
2023-04-14T02:52:55.135Z,0.86
2023-04-14T02:53:45.155Z,0.86
2023-04-14T02:54:35.231Z,0.86
2023-04-14T02:55:25.518Z,0.86
2023-04-14T02:56:15.596Z,0.89
2023-04-14T02:57:05.626Z,0.84
2023-04-14T02:57:55.764Z,0.86
2023-04-14T02:58:45.769Z,0.87
2023-04-14T02:59:35.862Z,0.84
2023-04-14T03:00:25.867Z,0.88
2023-04-14T03:01:16.013Z,0.88
2023-04-14T03:02:06.210Z,0.89
2023-04-14T03:02:56.218Z,0.86
2023-04-14T03:03:46.182Z,0.89
2023-04-14T03:04:36.227Z,0.90
2023-04-14T03:05:26.226Z,0.85
2023-04-14T03:06:16.311Z,0.86
2023-04-14T03:07:06.370Z,0.87
2023-04-14T03:07:56.471Z,0.86
2023-04-14T03:08:46.493Z,0.86
2023-04-14T03:09:36.570Z,0.86
2023-04-14T03:10:26.600Z,0.86
2023-04-14T03:11:16.676Z,0.85
2023-04-14T03:12:06.760Z,0.86
2023-04-14T03:12:56.853Z,0.88
2023-04-14T03:13:46.894Z,0.89
2023-04-14T03:14:36.960Z,0.89
2023-04-14T03:15:27.040Z,0.87
2023-04-14T03:16:17.164Z,0.85
2023-04-14T03:17:07.148Z,0.87
2023-04-14T03:17:57.570Z,0.87
2023-04-14T03:18:47.471Z,0.88
2023-04-14T03:19:37.545Z,0.85
2023-04-14T03:20:27.589Z,0.86
2023-04-14T03:21:17.664Z,0.87
2023-04-14T03:22:07.697Z,0.86
2023-04-14T03:22:57.793Z,0.89
2023-04-14T03:23:47.827Z,0.86
2023-04-14T03:24:37.903Z,0.88
2023-04-14T03:25:27.933Z,0.87
2023-04-14T03:26:18.015Z,0.87
2023-04-14T03:27:08.045Z,0.89
2023-04-14T03:27:58.150Z,0.87
2023-04-14T03:28:48.172Z,0.87
2023-04-14T03:29:38.243Z,0.89
2023-04-14T03:30:28.271Z,0.88
2023-04-14T03:31:18.348Z,0.88
2023-04-14T03:32:08.368Z,0.90
2023-04-14T03:32:58.531Z,0.89
2023-04-14T03:33:48.777Z,0.88
2023-04-14T03:34:38.817Z,0.90
2023-04-14T03:35:28.858Z,0.87
2023-04-14T03:36:18.889Z,0.89
2023-04-14T03:37:08.959Z,0.90
2023-04-14T03:37:59.011Z,0.92
2023-04-14T03:38:49.039Z,0.92
2023-04-14T03:39:39.167Z,0.93
2023-04-14T03:40:29.171Z,0.90
2023-04-14T03:41:19.203Z,0.92
2023-04-14T03:42:09.244Z,0.92
2023-04-14T03:42:59.337Z,0.91
2023-04-14T03:43:49.319Z,0.95
2023-04-14T03:44:39.362Z,0.93
2023-04-14T03:45:29.431Z,0.93
2023-04-14T03:46:19.544Z,0.94
2023-04-14T03:47:09.647Z,0.94
2023-04-14T03:47:59.740Z,0.94
2023-04-14T03:48:49.750Z,0.95
2023-04-14T03:49:39.822Z,0.93
2023-04-14T03:50:29.853Z,0.97
2023-04-14T03:51:19.933Z,0.94
2023-04-14T03:52:09.959Z,1.00
2023-04-14T03:53:00.030Z,0.96
2023-04-14T03:53:50.056Z,1.00
2023-04-14T03:54:40.086Z,1.01
2023-04-14T03:55:30.116Z,1.01
2023-04-14T03:56:20.206Z,1.04
2023-04-14T03:57:10.239Z,1.03
2023-04-14T03:58:00.296Z,1.01
2023-04-14T03:58:50.322Z,1.07
2023-04-14T03:59:40.397Z,1.04
2023-04-14T04:00:30.474Z,1.04
2023-04-14T04:01:20.542Z,1.01
2023-04-14T04:02:10.661Z,1.07
2023-04-14T04:03:00.855Z,1.03
2023-04-14T04:03:50.866Z,1.05
2023-04-14T04:04:40.872Z,1.06
2023-04-14T04:05:30.809Z,1.07
2023-04-14T04:06:20.855Z,1.09
2023-04-14T04:07:10.882Z,1.10
2023-04-14T04:08:00.999Z,1.07
2023-04-14T04:08:50.980Z,1.09
2023-04-14T04:09:41.078Z,1.11
2023-04-14T04:10:31.097Z,1.12
2023-04-14T04:11:21.187Z,1.13
2023-04-14T04:12:11.258Z,1.12
2023-04-14T04:13:01.355Z,1.13
2023-04-14T04:13:51.646Z,1.12
2023-04-14T04:14:41.692Z,1.15
2023-04-14T04:15:31.724Z,1.12
2023-04-14T04:16:21.846Z,1.12
2023-04-14T04:17:11.855Z,1.16
2023-04-14T04:18:02.042Z,1.15
2023-04-14T04:18:52.023Z,1.21
2023-04-14T04:19:42.085Z,1.21
2023-04-14T04:20:32.145Z,1.20
2023-04-14T04:21:22.225Z,1.21
2023-04-14T04:22:12.253Z,1.19
2023-04-14T04:23:02.309Z,1.20
2023-04-14T04:23:52.350Z,1.16
2023-04-14T04:24:42.416Z,1.16
2023-04-14T04:25:32.489Z,1.14
2023-04-14T04:26:22.570Z,1.16
2023-04-14T04:27:24.397Z,1.13
2023-04-14T04:28:03.674Z,1.13
2023-04-14T04:28:52.710Z,1.11
2023-04-14T04:29:42.858Z,1.11
2023-04-14T04:30:32.844Z,1.12
2023-04-14T04:31:22.974Z,1.09
2023-04-14T04:32:12.991Z,1.10
2023-04-14T04:33:03.052Z,1.10
2023-04-14T04:33:53.242Z,1.10
2023-04-14T04:34:43.294Z,1.08
2023-04-14T04:35:33.349Z,1.10
2023-04-14T04:36:23.382Z,1.07
2023-04-14T04:37:13.437Z,1.06
2023-04-14T04:38:03.476Z,1.08
2023-04-14T04:38:53.568Z,1.08
2023-04-14T04:39:43.608Z,1.04
2023-04-14T04:40:33.694Z,1.08
2023-04-14T04:41:23.724Z,1.07
2023-04-14T04:42:13.800Z,1.06
2023-04-14T04:43:03.836Z,1.06
2023-04-14T04:43:53.897Z,1.07
2023-04-14T04:44:43.929Z,1.06
2023-04-14T04:45:33.998Z,1.10
2023-04-14T04:46:24.096Z,1.00
2023-04-14T04:47:14.147Z,1.05
2023-04-14T04:48:04.309Z,1.05
2023-04-14T04:48:54.270Z,1.01
2023-04-14T04:49:44.303Z,1.05
2023-04-14T04:50:34.403Z,1.05
2023-04-14T04:51:24.410Z,1.06
2023-04-14T04:52:14.495Z,1.04
2023-04-14T04:53:04.535Z,1.01
2023-04-14T04:53:54.617Z,1.04
2023-04-14T04:54:44.643Z,1.02
2023-04-14T04:55:34.733Z,1.05
2023-04-14T04:56:24.748Z,1.04
2023-04-14T04:57:14.832Z,1.03
2023-04-14T04:58:04.865Z,1.03
2023-04-14T04:58:54.961Z,1.02
2023-04-14T04:59:44.995Z,1.03
2023-04-14T05:00:35.068Z,1.03
2023-04-14T05:01:25.139Z,1.04
2023-04-14T05:02:15.208Z,1.05
2023-04-14T05:03:05.456Z,1.05
2023-04-14T05:03:55.313Z,1.05
2023-04-14T05:04:45.383Z,1.04
2023-04-14T05:05:35.373Z,1.07
2023-04-14T05:06:25.503Z,1.05
2023-04-14T05:07:15.766Z,1.04
2023-04-14T05:08:05.796Z,1.00
2023-04-14T05:08:55.858Z,1.06
2023-04-14T05:09:45.892Z,1.02
2023-04-14T05:10:35.952Z,1.03
2023-04-14T05:11:26.029Z,1.02
2023-04-14T05:12:16.064Z,1.05
2023-04-14T05:13:06.142Z,1.06
2023-04-14T05:13:56.192Z,1.05
2023-04-14T05:14:46.237Z,1.03
2023-04-14T05:15:36.385Z,1.03
2023-04-14T05:16:26.403Z,1.04
2023-04-14T05:17:16.439Z,1.04
2023-04-14T05:18:06.592Z,1.04
2023-04-14T05:18:56.585Z,1.05
2023-04-14T05:19:46.740Z,1.04
2023-04-14T05:20:36.785Z,1.02
2023-04-14T05:21:26.879Z,1.02
2023-04-14T05:22:16.880Z,1.00
2023-04-14T05:23:06.964Z,0.99
2023-04-14T05:23:57.022Z,1.03
2023-04-14T05:24:47.049Z,1.04
2023-04-14T05:25:37.083Z,1.06
2023-04-14T05:26:49.203Z,1.04
2023-04-14T05:27:18.246Z,1.04
2023-04-14T05:28:07.278Z,1.05
2023-04-14T05:28:57.318Z,1.04
2023-04-14T05:29:47.351Z,1.05
2023-04-14T05:30:37.423Z,1.04
2023-04-14T05:31:27.473Z,1.07
2023-04-14T05:32:17.492Z,1.08
2023-04-14T05:33:07.860Z,1.07
2023-04-14T05:33:57.794Z,1.09
2023-04-14T05:34:47.828Z,1.03
2023-04-14T05:35:37.862Z,1.06
2023-04-14T05:36:27.908Z,1.08
2023-04-14T05:37:17.968Z,1.05
2023-04-14T05:38:08.019Z,1.04
2023-04-14T05:38:58.067Z,1.05
2023-04-14T05:39:48.100Z,1.03
2023-04-14T05:40:38.134Z,1.05
2023-04-14T05:41:28.248Z,1.09
2023-04-14T05:42:18.297Z,1.13
2023-04-14T05:43:08.333Z,1.12
2023-04-14T05:43:58.548Z,1.13
2023-04-14T05:44:48.437Z,1.12
2023-04-14T05:45:38.473Z,1.09
2023-04-14T05:46:28.606Z,1.07
2023-04-14T05:47:18.627Z,1.06
2023-04-14T05:48:08.816Z,1.07
2023-04-14T05:48:58.865Z,1.06
2023-04-14T05:49:48.781Z,1.04
2023-04-14T05:50:38.817Z,1.03
2023-04-14T05:51:28.885Z,1.02
2023-04-14T05:52:18.909Z,1.02
2023-04-14T05:53:09.172Z,1.04
2023-04-14T05:53:59.436Z,0.98
2023-04-14T05:54:49.234Z,0.98
2023-04-14T05:55:39.271Z,1.00
2023-04-14T05:56:29.347Z,1.01
2023-04-14T05:57:19.379Z,0.99
2023-04-14T05:58:09.454Z,0.97
2023-04-14T05:58:59.525Z,0.99
2023-04-14T05:59:49.563Z,0.98
2023-04-14T06:00:39.603Z,0.97
2023-04-14T06:01:29.684Z,0.98
2023-04-14T06:02:20.044Z,0.96
2023-04-14T06:03:10.288Z,0.98
2023-04-14T06:04:00.883Z,0.95
2023-04-14T06:04:50.347Z,0.94
2023-04-14T06:05:40.246Z,0.97
2023-04-14T06:06:30.316Z,0.99
2023-04-14T06:07:20.339Z,0.94
2023-04-14T06:08:10.390Z,0.96
2023-04-14T06:09:01.027Z,0.96
2023-04-14T06:09:50.706Z,0.94
2023-04-14T06:10:40.742Z,0.97
2023-04-14T06:11:30.786Z,0.98
2023-04-14T06:12:20.818Z,0.98
2023-04-14T06:13:10.899Z,0.95
2023-04-14T06:14:01.051Z,0.94
2023-04-14T06:14:50.997Z,0.96
2023-04-14T06:15:41.035Z,0.96
2023-04-14T06:16:31.225Z,0.94
2023-04-14T06:17:21.155Z,0.95
2023-04-14T06:18:11.217Z,0.93
2023-04-14T06:19:01.601Z,0.97
2023-04-14T06:19:51.321Z,0.92
2023-04-14T06:20:41.355Z,0.94
2023-04-14T06:21:31.393Z,0.94
2023-04-14T06:22:21.469Z,0.94
2023-04-14T06:23:11.547Z,0.92
2023-04-14T06:24:01.628Z,0.96
2023-04-14T06:24:51.669Z,0.94
2023-04-14T06:25:41.677Z,0.92
2023-04-14T06:26:31.828Z,0.95
2023-04-14T06:27:21.794Z,0.93
2023-04-14T06:28:11.871Z,0.94
2023-04-14T06:29:02.137Z,0.94
2023-04-14T06:29:51.983Z,0.95
2023-04-14T06:30:42.019Z,0.94
2023-04-14T06:31:32.148Z,0.95
2023-04-14T06:32:22.232Z,0.93
2023-04-14T06:33:12.201Z,0.94
2023-04-14T06:34:02.258Z,0.93
2023-04-14T06:34:53.455Z,0.94
2023-04-14T06:35:42.395Z,0.96
2023-04-14T06:36:32.475Z,0.92
2023-04-14T06:37:22.499Z,0.96
2023-04-14T06:38:12.576Z,0.94
2023-04-14T06:39:02.862Z,0.91
2023-04-14T06:39:52.656Z,0.92
2023-04-14T06:40:42.705Z,0.92
2023-04-14T06:41:32.738Z,0.93
2023-04-14T06:42:22.813Z,0.91
2023-04-14T06:43:12.860Z,0.90
2023-04-14T06:44:02.904Z,0.90
2023-04-14T06:44:52.941Z,0.90
2023-04-14T06:45:43.026Z,0.90
2023-04-14T06:46:33.159Z,0.90
2023-04-14T06:47:23.097Z,0.90
2023-04-14T06:48:13.108Z,0.90
2023-04-14T06:49:03.498Z,0.87
2023-04-14T06:49:53.273Z,0.89
2023-04-14T06:50:44.458Z,0.89
2023-04-14T06:51:33.388Z,0.92
2023-04-14T06:52:23.426Z,0.91
2023-04-14T06:53:13.477Z,0.91
2023-04-14T06:54:04.027Z,0.90
2023-04-14T06:54:53.583Z,0.90
2023-04-14T06:55:43.612Z,0.91
2023-04-14T06:56:33.716Z,0.91
2023-04-14T06:57:23.727Z,0.94
2023-04-14T06:58:13.839Z,0.91
2023-04-14T06:59:03.845Z,0.91
2023-04-14T06:59:53.894Z,0.94
2023-04-14T07:00:43.941Z,0.91
2023-04-14T07:01:34.084Z,0.96
2023-04-14T07:02:24.082Z,0.94
2023-04-14T07:03:14.100Z,0.95
2023-04-14T07:04:06.865Z,0.95
2023-04-14T07:04:54.195Z,0.97
2023-04-14T07:05:44.502Z,0.96
2023-04-14T07:06:34.572Z,0.96
2023-04-14T07:07:24.641Z,0.98
2023-04-14T07:08:14.717Z,0.99
2023-04-14T07:09:04.789Z,0.97
2023-04-14T07:09:54.955Z,0.97
2023-04-14T07:10:44.923Z,1.00
2023-04-14T07:11:34.958Z,0.99
2023-04-14T07:12:25.052Z,0.99
2023-04-14T07:13:15.113Z,0.98
2023-04-14T07:14:05.160Z,0.97
2023-04-14T07:14:55.403Z,0.99
2023-04-14T07:15:45.486Z,0.98
2023-04-14T07:16:35.526Z,1.00
2023-04-14T07:17:25.592Z,0.98
2023-04-14T07:18:15.591Z,0.99
2023-04-14T07:19:05.684Z,0.99
2023-04-14T07:19:55.708Z,0.99
2023-04-14T07:20:45.735Z,0.99
2023-04-14T07:21:35.817Z,1.00
2023-04-14T07:22:25.850Z,0.99
2023-04-14T07:23:15.927Z,1.01
2023-04-14T07:24:05.973Z,0.99
2023-04-14T07:24:56.016Z,1.04
2023-04-14T07:25:46.036Z,0.98
2023-04-14T07:26:36.116Z,1.01
2023-04-14T07:27:26.157Z,1.00
2023-04-14T07:28:16.238Z,1.00
2023-04-14T07:29:06.304Z,1.00
2023-04-14T07:29:56.339Z,1.01
2023-04-14T07:30:46.652Z,1.01
2023-04-14T07:31:36.774Z,1.00
2023-04-14T07:32:26.787Z,1.00
2023-04-14T07:33:16.809Z,0.99
2023-04-14T07:34:06.859Z,1.00
2023-04-14T07:34:58.795Z,1.01
2023-04-14T07:36:00.667Z,0.99
2023-04-14T07:36:37.996Z,0.99
2023-04-14T07:37:27.074Z,0.99
2023-04-14T07:38:17.134Z,1.00
2023-04-14T07:39:07.253Z,0.99
2023-04-14T07:39:57.248Z,1.00
2023-04-14T07:40:47.311Z,0.99
2023-04-14T07:41:37.391Z,1.00
2023-04-14T07:42:27.459Z,1.02
2023-04-14T07:43:17.537Z,1.00
2023-04-14T07:44:07.639Z,1.01
2023-04-14T07:44:57.921Z,1.04
2023-04-14T07:45:47.984Z,1.01
2023-04-14T07:46:38.095Z,0.99
2023-04-14T07:47:28.083Z,1.02
2023-04-14T07:48:18.116Z,1.04
2023-04-14T07:49:08.156Z,1.06
2023-04-14T07:49:58.196Z,1.03
2023-04-14T07:50:48.237Z,1.05
2023-04-14T07:51:38.313Z,1.02
2023-04-14T07:52:28.330Z,1.04
2023-04-14T07:53:18.404Z,1.00
2023-04-14T07:54:08.742Z,1.02
2023-04-14T07:54:58.770Z,1.02
2023-04-14T07:55:48.837Z,1.01
2023-04-14T07:56:38.917Z,1.02
2023-04-14T07:57:28.944Z,0.98
2023-04-14T07:58:19.030Z,1.00
2023-04-14T07:59:09.093Z,1.04
2023-04-14T07:59:59.100Z,1.01
2023-04-14T08:00:49.167Z,1.01
2023-04-14T08:01:39.274Z,1.02
2023-04-14T08:02:29.420Z,1.01
2023-04-14T08:03:19.463Z,1.00
2023-04-14T08:04:09.625Z,0.99
2023-04-14T08:04:59.470Z,1.03
2023-04-14T08:05:49.649Z,1.02
2023-04-14T08:06:39.494Z,1.02
2023-04-14T08:07:29.734Z,1.04
2023-04-14T08:08:19.807Z,1.02
2023-04-14T08:09:09.902Z,1.03
2023-04-14T08:09:59.936Z,1.01
2023-04-14T08:10:49.955Z,1.01
2023-04-14T08:11:40.066Z,1.00
2023-04-14T08:12:30.065Z,1.04
2023-04-14T08:13:20.146Z,1.02
2023-04-14T08:14:10.247Z,1.03
2023-04-14T08:15:00.403Z,1.01
2023-04-14T08:15:50.378Z,1.00
2023-04-14T08:16:40.512Z,1.05
2023-04-14T08:17:30.458Z,1.01
2023-04-14T08:18:20.462Z,1.00
2023-04-14T08:19:10.552Z,1.02
2023-04-14T08:20:00.590Z,1.03
2023-04-14T08:20:50.835Z,1.02
2023-04-14T08:21:40.877Z,1.00
2023-04-14T08:22:30.897Z,0.99
2023-04-14T08:23:20.994Z,1.03
2023-04-14T08:24:11.052Z,1.01
2023-04-14T08:25:01.086Z,1.01
2023-04-14T08:25:51.153Z,1.01
2023-04-14T08:26:41.231Z,1.01
2023-04-14T08:27:31.302Z,0.98
2023-04-14T08:28:21.374Z,1.04
2023-04-14T08:29:11.412Z,1.00
2023-04-14T08:30:01.438Z,0.99
2023-04-14T08:30:51.532Z,1.02
2023-04-14T08:31:41.654Z,1.00
2023-04-14T08:32:31.680Z,0.99
2023-04-14T08:33:21.731Z,1.03
2023-04-14T08:34:11.735Z,1.01
2023-04-14T08:35:38.677Z,1.00
2023-04-14T08:35:58.922Z,1.00
2023-04-14T08:36:41.898Z,1.00
2023-04-14T08:37:31.999Z,1.00
2023-04-14T08:38:22.034Z,1.00
2023-04-14T08:39:12.132Z,1.01
2023-04-14T08:40:02.139Z,1.00
2023-04-14T08:40:52.241Z,1.01
2023-04-14T08:41:42.270Z,1.01
2023-04-14T08:42:32.525Z,1.00
2023-04-14T08:43:22.569Z,0.99
2023-04-14T08:44:12.617Z,0.98
2023-04-14T08:45:02.651Z,1.01
2023-04-14T08:45:52.766Z,0.99
2023-04-14T08:46:42.788Z,1.04
2023-04-14T08:47:32.907Z,0.99
2023-04-14T08:48:25.041Z,0.99
2023-04-14T08:49:12.940Z,1.00
2023-04-14T08:50:02.959Z,1.01
2023-04-14T08:50:53.029Z,1.01
2023-04-14T08:51:43.098Z,1.00
2023-04-14T08:52:33.177Z,1.00
2023-04-14T08:53:23.205Z,0.98
2023-04-14T08:54:13.299Z,1.01
2023-04-14T08:55:03.328Z,0.99
2023-04-14T08:55:53.369Z,0.98
2023-04-14T08:56:43.392Z,1.00
2023-04-14T08:57:33.467Z,0.99
2023-04-14T08:58:23.536Z,0.97
2023-04-14T08:59:13.637Z,0.98
2023-04-14T09:00:03.666Z,1.00
2023-04-14T09:00:53.851Z,1.01
2023-04-14T09:01:43.903Z,0.97
2023-04-14T09:02:34.016Z,0.97
2023-04-14T09:03:24.072Z,1.00
2023-04-14T09:04:14.268Z,1.00
2023-04-14T09:05:03.990Z,1.00
2023-04-14T09:05:54.110Z,0.99
2023-04-14T09:06:44.134Z,1.00
2023-04-14T09:07:34.210Z,0.99
2023-04-14T09:08:24.233Z,0.99
2023-04-14T09:09:14.335Z,0.99
2023-04-14T09:10:04.373Z,0.99
2023-04-14T09:10:54.453Z,0.97
2023-04-14T09:11:44.482Z,0.98
2023-04-14T09:12:34.573Z,1.02
2023-04-14T09:13:24.580Z,1.00
2023-04-14T09:14:14.690Z,0.97
2023-04-14T09:15:04.904Z,0.98
2023-04-14T09:15:54.942Z,0.98
2023-04-14T09:16:45.108Z,0.98
2023-04-14T09:17:35.080Z,0.97
2023-04-14T09:18:25.128Z,0.99
2023-04-14T09:19:15.180Z,0.98
2023-04-14T09:20:39.373Z,0.99
2023-04-14T09:21:49.845Z,0.98
2023-04-14T09:21:53.782Z,0.98
2023-04-14T09:22:36.353Z,0.98
2023-04-14T09:23:25.449Z,0.98
2023-04-14T09:24:15.519Z,0.98
2023-04-14T09:25:05.591Z,0.99
2023-04-14T09:25:55.641Z,0.99
2023-04-14T09:26:45.708Z,0.98
2023-04-14T09:27:35.743Z,0.97
2023-04-14T09:28:25.903Z,0.99
2023-04-14T09:29:15.989Z,1.00
2023-04-14T09:30:06.041Z,0.97
2023-04-14T09:30:56.129Z,0.98
2023-04-14T09:31:46.147Z,1.00
2023-04-14T09:32:36.252Z,0.97
2023-04-14T09:33:26.237Z,0.98
2023-04-14T09:34:16.415Z,0.96
2023-04-14T09:35:06.349Z,1.00
2023-04-14T09:35:56.418Z,0.99
2023-04-14T09:36:46.495Z,0.99
2023-04-14T09:37:36.527Z,0.97
2023-04-14T09:38:26.616Z,0.99
2023-04-14T09:39:16.649Z,0.96
2023-04-14T09:40:06.685Z,0.98
2023-04-14T09:40:57.196Z,0.98
2023-04-14T09:41:46.770Z,0.97
2023-04-14T09:42:36.808Z,0.98
2023-04-14T09:43:26.970Z,1.00
2023-04-14T09:44:16.980Z,0.97
2023-04-14T09:45:06.996Z,0.97
2023-04-14T09:45:57.127Z,0.96
2023-04-14T09:46:47.210Z,0.97
2023-04-14T09:47:37.217Z,0.97
2023-04-14T09:48:27.274Z,0.96
2023-04-14T09:49:17.314Z,0.98
2023-04-14T09:50:07.369Z,0.95
2023-04-14T09:50:57.661Z,0.98
2023-04-14T09:51:47.738Z,0.97
2023-04-14T09:52:37.762Z,0.99
2023-04-14T09:53:27.858Z,0.95
2023-04-14T09:54:17.888Z,0.98
2023-04-14T09:55:07.922Z,0.94
2023-04-14T09:55:57.960Z,0.98
2023-04-14T09:56:47.994Z,0.97
2023-04-14T09:57:38.077Z,0.96
2023-04-14T09:58:29.276Z,0.98
2023-04-14T09:59:18.206Z,0.97
2023-04-14T10:00:08.235Z,0.96
2023-04-14T10:00:58.297Z,0.96
2023-04-14T10:01:48.510Z,0.98
2023-04-14T10:02:38.473Z,0.96
2023-04-14T10:03:28.634Z,0.96
2023-04-14T10:04:18.563Z,0.96
2023-04-14T10:05:08.712Z,0.97
2023-04-14T10:05:58.649Z,0.96
2023-04-14T10:06:48.756Z,0.98
2023-04-14T10:07:38.784Z,0.96
2023-04-14T10:08:28.839Z,0.96
2023-04-14T10:09:18.935Z,0.93
2023-04-14T10:10:08.979Z,0.96
2023-04-14T10:10:59.286Z,0.98
2023-04-14T10:11:49.373Z,0.95
2023-04-14T10:12:39.425Z,0.96
2023-04-14T10:13:29.446Z,0.97
2023-04-14T10:14:19.518Z,0.95
2023-04-14T10:15:09.596Z,0.95
2023-04-14T10:15:59.735Z,0.97
2023-04-14T10:16:49.684Z,0.94
2023-04-14T10:17:39.774Z,0.96
2023-04-14T10:18:29.773Z,0.95
2023-04-14T10:19:19.839Z,0.96
2023-04-14T10:20:10.145Z,0.99
2023-04-14T10:21:00.182Z,0.96
2023-04-14T10:21:50.218Z,0.95
2023-04-14T10:22:41.265Z,0.97
2023-04-14T10:23:30.365Z,0.94
2023-04-14T10:24:20.397Z,0.98
2023-04-14T10:25:10.424Z,0.96
2023-04-14T10:26:00.490Z,0.94
2023-04-14T10:26:50.572Z,0.95
2023-04-14T10:27:40.596Z,0.95
2023-04-14T10:28:33.036Z,0.94
2023-04-14T10:29:20.888Z,0.96
2023-04-14T10:30:10.961Z,0.95
2023-04-14T10:31:01.003Z,0.97
2023-04-14T10:31:51.127Z,0.97
2023-04-14T10:32:41.087Z,0.91
2023-04-14T10:33:31.119Z,0.95
2023-04-14T10:34:21.195Z,0.95
2023-04-14T10:35:11.229Z,0.96
2023-04-14T10:36:01.292Z,0.95
2023-04-14T10:36:51.392Z,0.96
2023-04-14T10:37:41.439Z,0.94
2023-04-14T10:38:31.476Z,0.94
2023-04-14T10:39:21.781Z,0.94
2023-04-14T10:40:11.817Z,0.94
2023-04-14T10:41:01.864Z,0.94
2023-04-14T10:41:51.903Z,0.96
2023-04-14T10:42:41.936Z,0.94
2023-04-14T10:43:32.014Z,0.93
2023-04-14T10:44:22.092Z,0.93
2023-04-14T10:45:12.115Z,0.93
2023-04-14T10:46:02.184Z,0.93
2023-04-14T10:46:52.328Z,0.94
2023-04-14T10:47:42.345Z,0.94
2023-04-14T10:48:32.341Z,0.91
2023-04-14T10:49:22.381Z,0.95
2023-04-14T10:50:12.433Z,0.94
2023-04-14T10:51:02.473Z,0.96
2023-04-14T10:51:52.557Z,0.95
2023-04-14T10:52:42.651Z,0.94
2023-04-14T10:53:32.665Z,0.92
2023-04-14T10:54:22.707Z,0.93
2023-04-14T10:55:12.741Z,0.93
2023-04-14T10:56:02.769Z,0.94
2023-04-14T10:56:52.841Z,0.92
2023-04-14T10:57:43.184Z,0.92
2023-04-14T10:58:33.183Z,0.92
2023-04-14T10:59:23.225Z,0.92
2023-04-14T11:00:13.267Z,0.93
2023-04-14T11:01:03.366Z,0.92
2023-04-14T11:01:53.421Z,0.91
2023-04-14T11:02:43.551Z,0.95
2023-04-14T11:03:33.602Z,0.90
2023-04-14T11:04:23.754Z,0.93
2023-04-14T11:05:13.572Z,0.94
2023-04-14T11:06:03.601Z,0.91